sensor_id;sensor_type;location;lat;lon;timestamp;noise_LAeq;noise_LA_min;noise_LA_max;noise_LA01;noise_LA95
67304;Laerm;57660;51.436;5.978;2023-02-25T00:00:09;40.60;29.49;57.86;;
67304;Laerm;57660;51.436;5.978;2023-02-25T00:00:47;31.84;29.85;38.65;;
67304;Laerm;57660;51.436;5.978;2023-02-25T00:01:13;30.57;29.08;33.10;;
67304;Laerm;57660;51.436;5.978;2023-02-25T00:01:35;30.45;29.11;33.47;;
67304;Laerm;57660;51.436;5.978;2023-02-25T00:01:45;30.53;29.11;36.30;;
67304;Laerm;57660;51.436;5.978;2023-02-25T00:02:05;30.31;29.15;31.36;;
67304;Laerm;57660;51.436;5.978;2023-02-25T00:02:15;31.43;29.33;41.60;;
67304;Laerm;57660;51.436;5.978;2023-02-25T00:02:31;32.53;29.81;40.67;;
67304;Laerm;57660;51.436;5.978;2023-02-25T00:03:00;30.58;29.39;32.72;;
67304;Laerm;57660;51.436;5.978;2023-02-25T00:03:23;30.40;29.28;33.32;;
67304;Laerm;57660;51.436;5.978;2023-02-25T00:03:52;30.61;29.24;32.07;;
67304;Laerm;57660;51.436;5.978;2023-02-25T00:04:30;30.99;29.43;34.26;;
67304;Laerm;57660;51.436;5.978;2023-02-25T00:04:41;31.39;29.78;33.59;;
67304;Laerm;57660;51.436;5.978;2023-02-25T00:05:40;36.48;29.66;51.02;;
67304;Laerm;57660;51.436;5.978;2023-02-25T00:06:03;35.11;29.73;41.77;;
67304;Laerm;57660;51.436;5.978;2023-02-25T00:06:20;32.67;29.89;37.35;;
67304;Laerm;57660;51.436;5.978;2023-02-25T00:06:43;31.72;29.56;42.02;;
67304;Laerm;57660;51.436;5.978;2023-02-25T00:07:05;34.20;30.51;38.56;;
67304;Laerm;57660;51.436;5.978;2023-02-25T00:07:27;41.76;29.93;54.67;;
67304;Laerm;57660;51.436;5.978;2023-02-25T00:07:38;33.16;31.11;35.67;;
67304;Laerm;57660;51.436;5.978;2023-02-25T00:07:58;32.86;31.25;35.17;;
67304;Laerm;57660;51.436;5.978;2023-02-25T00:08:08;45.67;31.00;51.82;;
67304;Laerm;57660;51.436;5.978;2023-02-25T00:08:28;44.64;38.53;51.69;;
67304;Laerm;57660;51.436;5.978;2023-02-25T00:08:39;45.06;39.84;49.22;;
67304;Laerm;57660;51.436;5.978;2023-02-25T00:09:32;69.70;40.55;74.86;;
67304;Laerm;57660;51.436;5.978;2023-02-25T00:09:43;36.87;29.87;46.41;;
67304;Laerm;57660;51.436;5.978;2023-02-25T00:10:23;31.32;29.21;44.47;;
67304;Laerm;57660;51.436;5.978;2023-02-25T00:11:23;30.95;29.38;35.19;;
67304;Laerm;57660;51.436;5.978;2023-02-25T00:11:43;30.77;29.28;33.46;;
67304;Laerm;57660;51.436;5.978;2023-02-25T00:11:53;32.51;29.70;42.12;;
67304;Laerm;57660;51.436;5.978;2023-02-25T00:12:16;34.62;30.17;42.85;;
67304;Laerm;57660;51.436;5.978;2023-02-25T00:12:30;32.96;29.54;42.53;;
67304;Laerm;57660;51.436;5.978;2023-02-25T00:12:40;30.95;29.62;33.46;;
67304;Laerm;57660;51.436;5.978;2023-02-25T00:12:59;30.67;29.08;32.62;;
67304;Laerm;57660;51.436;5.978;2023-02-25T00:13:10;30.68;29.44;35.60;;
67304;Laerm;57660;51.436;5.978;2023-02-25T00:13:30;32.89;29.41;46.04;;
67304;Laerm;57660;51.436;5.978;2023-02-25T00:13:49;40.17;29.64;49.99;;
67304;Laerm;57660;51.436;5.978;2023-02-25T00:14:02;42.80;32.20;53.27;;
67304;Laerm;57660;51.436;5.978;2023-02-25T00:15:10;41.36;31.86;53.40;;
67304;Laerm;57660;51.436;5.978;2023-02-25T00:15:25;36.14;32.20;42.62;;
67304;Laerm;57660;51.436;5.978;2023-02-25T00:15:35;32.46;29.80;36.90;;
67304;Laerm;57660;51.436;5.978;2023-02-25T00:15:55;30.68;29.56;32.22;;
67304;Laerm;57660;51.436;5.978;2023-02-25T00:16:16;35.25;29.16;47.35;;
67304;Laerm;57660;51.436;5.978;2023-02-25T00:16:26;33.14;29.69;44.99;;
67304;Laerm;57660;51.436;5.978;2023-02-25T00:16:50;30.61;29.40;33.60;;
67304;Laerm;57660;51.436;5.978;2023-02-25T00:17:15;30.89;29.55;32.61;;
67304;Laerm;57660;51.436;5.978;2023-02-25T00:17:25;30.86;29.37;33.92;;
67304;Laerm;57660;51.436;5.978;2023-02-25T00:17:44;30.66;29.39;31.78;;
67304;Laerm;57660;51.436;5.978;2023-02-25T00:17:55;31.10;29.56;41.84;;
67304;Laerm;57660;51.436;5.978;2023-02-25T00:18:15;31.36;29.83;35.71;;
67304;Laerm;57660;51.436;5.978;2023-02-25T00:18:25;31.04;29.09;38.98;;
67304;Laerm;57660;51.436;5.978;2023-02-25T00:19:06;31.01;29.23;37.80;;
67304;Laerm;57660;51.436;5.978;2023-02-25T00:19:28;32.66;30.43;36.93;;
67304;Laerm;57660;51.436;5.978;2023-02-25T00:19:51;32.43;30.42;34.59;;
67304;Laerm;57660;51.436;5.978;2023-02-25T00:20:12;31.65;29.74;37.08;;
67304;Laerm;57660;51.436;5.978;2023-02-25T00:20:23;32.81;30.93;37.77;;
67304;Laerm;57660;51.436;5.978;2023-02-25T00:20:42;31.76;29.87;39.22;;
67304;Laerm;57660;51.436;5.978;2023-02-25T00:21:07;32.09;29.72;37.42;;
67304;Laerm;57660;51.436;5.978;2023-02-25T00:21:54;33.29;30.34;39.79;;
67304;Laerm;57660;51.436;5.978;2023-02-25T00:22:11;33.20;30.50;39.94;;
67304;Laerm;57660;51.436;5.978;2023-02-25T00:22:36;31.90;29.86;34.68;;
67304;Laerm;57660;51.436;5.978;2023-02-25T00:22:46;31.71;30.01;35.18;;
67304;Laerm;57660;51.436;5.978;2023-02-25T00:23:03;30.87;29.75;32.30;;
67304;Laerm;57660;51.436;5.978;2023-02-25T00:23:28;30.47;29.26;33.38;;
67304;Laerm;57660;51.436;5.978;2023-02-25T00:23:48;30.66;29.04;33.56;;
67304;Laerm;57660;51.436;5.978;2023-02-25T00:24:08;30.70;29.05;32.29;;
67304;Laerm;57660;51.436;5.978;2023-02-25T00:24:34;30.99;29.57;33.63;;
67304;Laerm;57660;51.436;5.978;2023-02-25T00:24:59;31.93;29.74;35.25;;
67304;Laerm;57660;51.436;5.978;2023-02-25T00:25:28;40.79;31.50;48.83;;
67304;Laerm;57660;51.436;5.978;2023-02-25T00:26:48;36.27;30.74;49.54;;
67304;Laerm;57660;51.436;5.978;2023-02-25T00:27:14;33.97;30.89;46.11;;
67304;Laerm;57660;51.436;5.978;2023-02-25T00:27:39;32.82;30.51;39.57;;
67304;Laerm;57660;51.436;5.978;2023-02-25T00:28:02;33.59;30.65;43.42;;
67304;Laerm;57660;51.436;5.978;2023-02-25T00:28:36;32.04;30.28;35.01;;
67304;Laerm;57660;51.436;5.978;2023-02-25T00:28:54;31.77;30.09;35.07;;
67304;Laerm;57660;51.436;5.978;2023-02-25T00:29:19;31.66;29.70;36.72;;
67304;Laerm;57660;51.436;5.978;2023-02-25T00:29:40;31.63;29.70;34.02;;
67304;Laerm;57660;51.436;5.978;2023-02-25T00:29:59;31.23;29.34;36.44;;
67304;Laerm;57660;51.436;5.978;2023-02-25T00:30:24;31.04;29.23;35.41;;
67304;Laerm;57660;51.436;5.978;2023-02-25T00:30:43;31.53;29.99;35.08;;
67304;Laerm;57660;51.436;5.978;2023-02-25T00:30:54;31.70;30.38;36.24;;
67304;Laerm;57660;51.436;5.978;2023-02-25T00:31:18;40.04;29.86;57.80;;
67304;Laerm;57660;51.436;5.978;2023-02-25T00:31:40;38.55;29.31;57.21;;
67304;Laerm;57660;51.436;5.978;2023-02-25T00:32:00;34.70;31.28;39.00;;
67304;Laerm;57660;51.436;5.978;2023-02-25T00:32:10;32.07;29.89;36.81;;
67304;Laerm;57660;51.436;5.978;2023-02-25T00:32:30;36.31;31.39;40.06;;
67304;Laerm;57660;51.436;5.978;2023-02-25T00:34:07;37.63;29.79;49.09;;
67304;Laerm;57660;51.436;5.978;2023-02-25T00:34:26;47.06;42.18;52.69;;
67304;Laerm;57660;51.436;5.978;2023-02-25T00:35:10;37.92;32.89;45.96;;
67304;Laerm;57660;51.436;5.978;2023-02-25T00:35:37;32.56;29.46;40.40;;
67304;Laerm;57660;51.436;5.978;2023-02-25T00:35:47;31.26;29.55;33.94;;
67304;Laerm;57660;51.436;5.978;2023-02-25T00:36:05;31.09;29.75;33.40;;
67304;Laerm;57660;51.436;5.978;2023-02-25T00:36:26;31.27;29.82;34.82;;
67304;Laerm;57660;51.436;5.978;2023-02-25T00:36:37;32.19;30.42;36.71;;
67304;Laerm;57660;51.436;5.978;2023-02-25T00:36:55;32.43;30.90;34.71;;
67304;Laerm;57660;51.436;5.978;2023-02-25T00:37:17;33.10;30.25;44.81;;
67304;Laerm;57660;51.436;5.978;2023-02-25T00:37:37;32.72;30.58;42.21;;
67304;Laerm;57660;51.436;5.978;2023-02-25T00:37:49;31.86;30.34;34.65;;
67304;Laerm;57660;51.436;5.978;2023-02-25T00:38:25;31.40;29.93;33.43;;
67304;Laerm;57660;51.436;5.978;2023-02-25T00:38:38;31.09;29.67;33.61;;
67304;Laerm;57660;51.436;5.978;2023-02-25T00:38:54;31.38;29.90;32.76;;
67304;Laerm;57660;51.436;5.978;2023-02-25T00:39:11;31.94;30.01;34.93;;
67304;Laerm;57660;51.436;5.978;2023-02-25T00:39:33;31.57;30.35;34.66;;
67304;Laerm;57660;51.436;5.978;2023-02-25T00:40:01;31.37;29.98;36.41;;
67304;Laerm;57660;51.436;5.978;2023-02-25T00:40:21;32.32;30.51;35.89;;
67304;Laerm;57660;51.436;5.978;2023-02-25T00:40:50;33.46;30.91;46.36;;
67304;Laerm;57660;51.436;5.978;2023-02-25T00:41:07;46.50;40.01;51.91;;
67304;Laerm;57660;51.436;5.978;2023-02-25T00:41:22;44.49;41.01;49.02;;
67304;Laerm;57660;51.436;5.978;2023-02-25T00:41:41;69.90;46.10;80.31;;
67304;Laerm;57660;51.436;5.978;2023-02-25T00:41:58;70.01;66.30;73.39;;
67304;Laerm;57660;51.436;5.978;2023-02-25T00:42:26;63.25;40.30;70.76;;
67304;Laerm;57660;51.436;5.978;2023-02-25T00:42:46;33.20;30.19;45.14;;
67304;Laerm;57660;51.436;5.978;2023-02-25T00:43:13;30.88;29.53;32.22;;
67304;Laerm;57660;51.436;5.978;2023-02-25T00:43:43;31.37;29.71;33.90;;
67304;Laerm;57660;51.436;5.978;2023-02-25T00:43:59;31.27;29.41;34.38;;
67304;Laerm;57660;51.436;5.978;2023-02-25T00:44:19;30.89;29.72;32.34;;
67304;Laerm;57660;51.436;5.978;2023-02-25T00:44:45;31.65;30.26;33.17;;
67304;Laerm;57660;51.436;5.978;2023-02-25T00:45:02;32.84;30.61;35.70;;
67304;Laerm;57660;51.436;5.978;2023-02-25T00:45:12;44.73;32.76;51.08;;
67304;Laerm;57660;51.436;5.978;2023-02-25T00:45:32;47.22;41.66;50.68;;
67304;Laerm;57660;51.436;5.978;2023-02-25T00:45:42;46.29;42.03;48.91;;
67304;Laerm;57660;51.436;5.978;2023-02-25T00:46:02;47.42;43.18;50.15;;
67304;Laerm;57660;51.436;5.978;2023-02-25T00:46:26;70.47;46.90;79.90;;
67304;Laerm;57660;51.436;5.978;2023-02-25T00:46:43;67.77;42.27;73.90;;
67304;Laerm;57660;51.436;5.978;2023-02-25T00:47:06;36.75;29.60;49.74;;
67304;Laerm;57660;51.436;5.978;2023-02-25T00:47:17;31.93;30.07;42.85;;
67304;Laerm;57660;51.436;5.978;2023-02-25T00:48:09;31.50;29.57;39.44;;
67304;Laerm;57660;51.436;5.978;2023-02-25T00:48:34;44.36;29.86;50.65;;
67304;Laerm;57660;51.436;5.978;2023-02-25T00:48:54;45.46;40.48;48.75;;
67304;Laerm;57660;51.436;5.978;2023-02-25T00:49:04;62.23;41.66;71.64;;
67304;Laerm;57660;51.436;5.978;2023-02-25T00:49:27;44.83;39.99;48.89;;
67304;Laerm;57660;51.436;5.978;2023-02-25T00:49:44;69.99;40.43;85.67;;
67304;Laerm;57660;51.436;5.978;2023-02-25T00:50:08;45.10;37.52;57.82;;
67304;Laerm;57660;51.436;5.978;2023-02-25T00:50:31;38.87;34.44;45.28;;
67304;Laerm;57660;51.436;5.978;2023-02-25T00:50:56;34.19;31.60;41.80;;
67304;Laerm;57660;51.436;5.978;2023-02-25T00:51:14;32.76;30.70;36.29;;
67304;Laerm;57660;51.436;5.978;2023-02-25T00:51:31;31.90;29.77;43.75;;
67304;Laerm;57660;51.436;5.978;2023-02-25T00:51:54;31.99;29.76;35.11;;
67304;Laerm;57660;51.436;5.978;2023-02-25T00:52:19;31.70;29.87;40.34;;
67304;Laerm;57660;51.436;5.978;2023-02-25T00:52:36;30.79;29.56;32.33;;
67304;Laerm;57660;51.436;5.978;2023-02-25T00:52:52;30.98;29.32;33.35;;
67304;Laerm;57660;51.436;5.978;2023-02-25T00:53:05;31.78;29.62;40.77;;
67304;Laerm;57660;51.436;5.978;2023-02-25T00:53:24;31.70;30.34;33.89;;
67304;Laerm;57660;51.436;5.978;2023-02-25T00:53:35;30.87;29.54;33.88;;
67304;Laerm;57660;51.436;5.978;2023-02-25T00:53:56;31.37;29.29;43.11;;
67304;Laerm;57660;51.436;5.978;2023-02-25T00:54:18;30.35;28.96;31.46;;
67304;Laerm;57660;51.436;5.978;2023-02-25T00:54:29;31.04;29.60;34.03;;
67304;Laerm;57660;51.436;5.978;2023-02-25T00:54:54;30.69;29.62;35.01;;
67304;Laerm;57660;51.436;5.978;2023-02-25T00:55:13;31.41;30.16;35.43;;
67304;Laerm;57660;51.436;5.978;2023-02-25T00:55:24;31.24;29.35;39.46;;
67304;Laerm;57660;51.436;5.978;2023-02-25T00:55:37;35.41;29.85;51.54;;
67304;Laerm;57660;51.436;5.978;2023-02-25T00:56:22;30.97;29.76;32.93;;
67304;Laerm;57660;51.436;5.978;2023-02-25T00:56:29;31.84;29.57;38.96;;
67304;Laerm;57660;51.436;5.978;2023-02-25T00:57:05;32.22;30.12;41.24;;
67304;Laerm;57660;51.436;5.978;2023-02-25T00:57:28;31.63;29.66;38.54;;
67304;Laerm;57660;51.436;5.978;2023-02-25T00:57:38;31.23;29.65;33.70;;
67304;Laerm;57660;51.436;5.978;2023-02-25T00:57:55;31.47;30.23;33.13;;
67304;Laerm;57660;51.436;5.978;2023-02-25T00:58:14;31.23;29.46;33.78;;
67304;Laerm;57660;51.436;5.978;2023-02-25T00:58:25;31.48;29.84;38.81;;
67304;Laerm;57660;51.436;5.978;2023-02-25T00:58:53;31.80;29.73;38.83;;
67304;Laerm;57660;51.436;5.978;2023-02-25T00:59:13;31.94;29.48;42.01;;
67304;Laerm;57660;51.436;5.978;2023-02-25T00:59:32;31.98;30.39;36.17;;
67304;Laerm;57660;51.436;5.978;2023-02-25T00:59:55;32.54;29.86;39.26;;
67304;Laerm;57660;51.436;5.978;2023-02-25T01:00:23;43.10;30.00;58.05;;
67304;Laerm;57660;51.436;5.978;2023-02-25T01:00:43;32.16;29.60;40.49;;
67304;Laerm;57660;51.436;5.978;2023-02-25T01:01:14;31.52;29.94;33.35;;
67304;Laerm;57660;51.436;5.978;2023-02-25T01:01:29;31.46;29.78;38.48;;
67304;Laerm;57660;51.436;5.978;2023-02-25T01:01:49;31.04;29.51;32.78;;
67304;Laerm;57660;51.436;5.978;2023-02-25T01:02:08;31.08;29.84;32.81;;
67304;Laerm;57660;51.436;5.978;2023-02-25T01:02:30;31.52;30.04;35.53;;
67304;Laerm;57660;51.436;5.978;2023-02-25T01:02:49;31.50;29.68;34.09;;
67304;Laerm;57660;51.436;5.978;2023-02-25T01:03:08;31.62;29.78;33.86;;
67304;Laerm;57660;51.436;5.978;2023-02-25T01:03:37;31.98;30.33;39.93;;
67304;Laerm;57660;51.436;5.978;2023-02-25T01:03:59;31.73;29.79;37.07;;
67304;Laerm;57660;51.436;5.978;2023-02-25T01:04:19;32.36;29.94;41.91;;
67304;Laerm;57660;51.436;5.978;2023-02-25T01:04:44;30.77;29.60;32.44;;
67304;Laerm;57660;51.436;5.978;2023-02-25T01:04:55;30.52;29.24;36.46;;
67304;Laerm;57660;51.436;5.978;2023-02-25T01:05:13;30.86;29.62;32.65;;
67304;Laerm;57660;51.436;5.978;2023-02-25T01:05:38;30.82;29.59;33.19;;
67304;Laerm;57660;51.436;5.978;2023-02-25T01:06:10;31.63;29.71;34.60;;
67304;Laerm;57660;51.436;5.978;2023-02-25T01:06:35;30.95;29.08;37.37;;
67304;Laerm;57660;51.436;5.978;2023-02-25T01:06:52;30.69;29.24;33.53;;
67304;Laerm;57660;51.436;5.978;2023-02-25T01:07:20;30.65;29.53;32.36;;
67304;Laerm;57660;51.436;5.978;2023-02-25T01:07:48;33.28;29.92;45.70;;
67304;Laerm;57660;51.436;5.978;2023-02-25T01:08:11;31.00;29.64;33.16;;
67304;Laerm;57660;51.436;5.978;2023-02-25T01:08:21;30.98;29.61;33.43;;
67304;Laerm;57660;51.436;5.978;2023-02-25T01:08:40;31.99;30.01;39.94;;
67304;Laerm;57660;51.436;5.978;2023-02-25T01:08:51;31.45;29.28;39.08;;
67304;Laerm;57660;51.436;5.978;2023-02-25T01:09:10;30.90;29.50;32.26;;
67304;Laerm;57660;51.436;5.978;2023-02-25T01:09:41;31.03;29.69;32.63;;
67304;Laerm;57660;51.436;5.978;2023-02-25T01:10:00;31.01;28.84;34.92;;
67304;Laerm;57660;51.436;5.978;2023-02-25T01:10:10;31.29;29.55;43.05;;
67304;Laerm;57660;51.436;5.978;2023-02-25T01:10:26;31.71;29.45;42.51;;
67304;Laerm;57660;51.436;5.978;2023-02-25T01:10:52;30.34;29.19;32.90;;
67304;Laerm;57660;51.436;5.978;2023-02-25T01:11:16;31.65;29.53;47.51;;
67304;Laerm;57660;51.436;5.978;2023-02-25T01:11:40;33.48;29.63;47.76;;
67304;Laerm;57660;51.436;5.978;2023-02-25T01:12:06;32.75;29.36;43.02;;
67304;Laerm;57660;51.436;5.978;2023-02-25T01:12:22;31.12;29.53;38.57;;
67304;Laerm;57660;51.436;5.978;2023-02-25T01:12:48;40.86;30.08;54.41;;
67304;Laerm;57660;51.436;5.978;2023-02-25T01:13:11;31.45;29.81;38.32;;
67304;Laerm;57660;51.436;5.978;2023-02-25T01:13:22;31.72;29.95;39.15;;
67304;Laerm;57660;51.436;5.978;2023-02-25T01:13:44;31.69;30.29;34.88;;
67304;Laerm;57660;51.436;5.978;2023-02-25T01:14:17;34.10;31.09;39.72;;
67304;Laerm;57660;51.436;5.978;2023-02-25T01:14:34;46.41;34.09;51.54;;
67304;Laerm;57660;51.436;5.978;2023-02-25T01:15:00;72.20;44.90;83.93;;
67304;Laerm;57660;51.436;5.978;2023-02-25T01:15:22;74.89;35.09;81.85;;
67304;Laerm;57660;51.436;5.978;2023-02-25T01:15:32;33.24;29.62;37.18;;
67304;Laerm;57660;51.436;5.978;2023-02-25T01:15:47;30.48;29.27;31.43;;
67304;Laerm;57660;51.436;5.978;2023-02-25T01:15:57;30.45;29.34;32.95;;
67304;Laerm;57660;51.436;5.978;2023-02-25T01:16:18;30.70;29.27;32.99;;
67304;Laerm;57660;51.436;5.978;2023-02-25T01:16:39;34.85;29.78;49.94;;
67304;Laerm;57660;51.436;5.978;2023-02-25T01:16:58;30.66;29.34;33.80;;
67304;Laerm;57660;51.436;5.978;2023-02-25T01:17:29;31.81;29.79;35.94;;
67304;Laerm;57660;51.436;5.978;2023-02-25T01:17:58;32.16;29.68;42.62;;
67304;Laerm;57660;51.436;5.978;2023-02-25T01:18:09;31.79;30.03;34.57;;
67304;Laerm;57660;51.436;5.978;2023-02-25T01:18:28;31.60;30.18;33.23;;
67304;Laerm;57660;51.436;5.978;2023-02-25T01:18:50;31.88;29.77;34.34;;
67304;Laerm;57660;51.436;5.978;2023-02-25T01:19:15;42.19;30.31;54.53;;
67304;Laerm;57660;51.436;5.978;2023-02-25T01:19:34;36.49;30.74;42.76;;
67304;Laerm;57660;51.436;5.978;2023-02-25T01:19:54;34.45;29.73;50.48;;
67304;Laerm;57660;51.436;5.978;2023-02-25T01:20:42;30.72;29.45;37.88;;
67304;Laerm;57660;51.436;5.978;2023-02-25T01:20:52;31.00;29.06;40.39;;
67304;Laerm;57660;51.436;5.978;2023-02-25T01:21:18;30.46;29.34;32.45;;
67304;Laerm;57660;51.436;5.978;2023-02-25T01:21:42;30.62;29.45;32.12;;
67304;Laerm;57660;51.436;5.978;2023-02-25T01:22:01;30.56;29.25;32.19;;
67304;Laerm;57660;51.436;5.978;2023-02-25T01:22:24;30.34;28.88;36.31;;
67304;Laerm;57660;51.436;5.978;2023-02-25T01:22:34;30.17;28.73;33.11;;
67304;Laerm;57660;51.436;5.978;2023-02-25T01:22:57;30.33;29.19;31.36;;
67304;Laerm;57660;51.436;5.978;2023-02-25T01:23:20;31.97;28.91;49.38;;
67304;Laerm;57660;51.436;5.978;2023-02-25T01:23:39;30.34;29.17;32.46;;
67304;Laerm;57660;51.436;5.978;2023-02-25T01:23:57;30.48;28.79;37.86;;
67304;Laerm;57660;51.436;5.978;2023-02-25T01:24:24;30.22;28.80;32.98;;
67304;Laerm;57660;51.436;5.978;2023-02-25T01:24:50;30.45;29.13;32.73;;
67304;Laerm;57660;51.436;5.978;2023-02-25T01:25:12;30.10;28.98;31.34;;
67304;Laerm;57660;51.436;5.978;2023-02-25T01:25:40;30.45;28.72;37.07;;
67304;Laerm;57660;51.436;5.978;2023-02-25T01:25:51;33.25;28.96;48.97;;
67304;Laerm;57660;51.436;5.978;2023-02-25T01:26:12;30.66;29.61;31.69;;
67304;Laerm;57660;51.436;5.978;2023-02-25T01:26:45;30.22;29.26;32.74;;
67304;Laerm;57660;51.436;5.978;2023-02-25T01:29:00;30.29;29.12;32.44;;
67304;Laerm;57660;51.436;5.978;2023-02-25T01:29:12;30.24;28.98;31.72;;
67304;Laerm;57660;51.436;5.978;2023-02-25T01:29:52;30.54;29.08;33.92;;
67304;Laerm;57660;51.436;5.978;2023-02-25T01:30:02;30.85;29.09;38.85;;
67304;Laerm;57660;51.436;5.978;2023-02-25T01:30:25;30.28;29.01;32.55;;
67304;Laerm;57660;51.436;5.978;2023-02-25T01:30:40;30.63;29.26;32.24;;
67304;Laerm;57660;51.436;5.978;2023-02-25T01:30:50;30.08;29.07;31.29;;
67304;Laerm;57660;51.436;5.978;2023-02-25T01:31:11;30.34;29.17;32.08;;
67304;Laerm;57660;51.436;5.978;2023-02-25T01:31:35;39.98;29.81;58.20;;
67304;Laerm;57660;51.436;5.978;2023-02-25T01:31:47;32.43;29.25;45.25;;
67304;Laerm;57660;51.436;5.978;2023-02-25T01:32:12;30.82;29.29;37.14;;
67304;Laerm;57660;51.436;5.978;2023-02-25T01:32:41;30.64;29.18;32.93;;
67304;Laerm;57660;51.436;5.978;2023-02-25T01:32:57;31.02;29.39;32.85;;
67304;Laerm;57660;51.436;5.978;2023-02-25T01:33:22;31.65;29.98;38.51;;
67304;Laerm;57660;51.436;5.978;2023-02-25T01:33:33;30.87;29.40;33.45;;
67304;Laerm;57660;51.436;5.978;2023-02-25T01:34:03;30.85;29.23;33.25;;
67304;Laerm;57660;51.436;5.978;2023-02-25T01:34:47;31.05;29.62;33.51;;
67304;Laerm;57660;51.436;5.978;2023-02-25T01:35:16;41.05;29.65;51.09;;
67304;Laerm;57660;51.436;5.978;2023-02-25T01:35:35;47.24;43.10;51.01;;
67304;Laerm;57660;51.436;5.978;2023-02-25T01:35:57;46.16;41.71;50.92;;
67304;Laerm;57660;51.436;5.978;2023-02-25T01:36:13;70.61;46.37;80.23;;
67304;Laerm;57660;51.436;5.978;2023-02-25T01:36:24;69.87;47.20;73.79;;
67304;Laerm;57660;51.436;5.978;2023-02-25T01:36:52;40.79;31.66;49.53;;
67304;Laerm;57660;51.436;5.978;2023-02-25T01:37:20;36.96;30.22;42.72;;
67304;Laerm;57660;51.436;5.978;2023-02-25T01:37:39;30.61;29.19;33.41;;
67304;Laerm;57660;51.436;5.978;2023-02-25T01:38:05;30.30;28.93;31.74;;
67304;Laerm;57660;51.436;5.978;2023-02-25T01:38:31;30.14;29.15;32.48;;
67304;Laerm;57660;51.436;5.978;2023-02-25T01:38:54;30.49;29.18;32.51;;
67304;Laerm;57660;51.436;5.978;2023-02-25T01:39:12;38.08;30.17;44.61;;
67304;Laerm;57660;51.436;5.978;2023-02-25T01:39:24;42.54;35.99;49.82;;
67304;Laerm;57660;51.436;5.978;2023-02-25T01:39:50;36.80;32.53;41.23;;
67304;Laerm;57660;51.436;5.978;2023-02-25T01:40:18;34.40;31.81;37.64;;
67304;Laerm;57660;51.436;5.978;2023-02-25T01:40:31;44.21;31.21;56.56;;
67304;Laerm;57660;51.436;5.978;2023-02-25T01:40:42;45.06;38.45;49.73;;
67304;Laerm;57660;51.436;5.978;2023-02-25T01:41:01;42.76;36.77;49.51;;
67304;Laerm;57660;51.436;5.978;2023-02-25T01:41:24;36.73;31.83;43.13;;
67304;Laerm;57660;51.436;5.978;2023-02-25T01:41:36;31.68;29.69;34.07;;
67304;Laerm;57660;51.436;5.978;2023-02-25T01:41:54;32.10;29.80;35.43;;
67304;Laerm;57660;51.436;5.978;2023-02-25T01:42:19;30.37;28.85;32.10;;
67304;Laerm;57660;51.436;5.978;2023-02-25T01:42:32;31.02;29.32;38.19;;
67304;Laerm;57660;51.436;5.978;2023-02-25T01:42:51;30.69;29.74;32.30;;
67304;Laerm;57660;51.436;5.978;2023-02-25T01:43:03;30.50;29.29;31.54;;
67304;Laerm;57660;51.436;5.978;2023-02-25T01:43:20;30.69;29.49;32.29;;
67304;Laerm;57660;51.436;5.978;2023-02-25T01:43:30;30.52;29.30;33.99;;
67304;Laerm;57660;51.436;5.978;2023-02-25T01:44:29;30.79;28.91;37.60;;
67304;Laerm;57660;51.436;5.978;2023-02-25T01:45:28;30.37;29.09;31.82;;
67304;Laerm;57660;51.436;5.978;2023-02-25T01:45:41;30.23;29.02;32.35;;
67304;Laerm;57660;51.436;5.978;2023-02-25T01:46:10;30.37;29.10;34.01;;
67304;Laerm;57660;51.436;5.978;2023-02-25T01:46:36;30.62;29.30;32.16;;
67304;Laerm;57660;51.436;5.978;2023-02-25T01:47:05;30.12;28.55;31.23;;
67304;Laerm;57660;51.436;5.978;2023-02-25T01:47:34;30.13;28.84;32.53;;
67304;Laerm;57660;51.436;5.978;2023-02-25T01:47:57;30.63;29.36;32.84;;
67304;Laerm;57660;51.436;5.978;2023-02-25T01:48:18;30.32;29.23;32.45;;
67304;Laerm;57660;51.436;5.978;2023-02-25T01:48:41;32.04;29.29;44.55;;
67304;Laerm;57660;51.436;5.978;2023-02-25T01:48:52;30.23;28.95;32.69;;
67304;Laerm;57660;51.436;5.978;2023-02-25T01:49:23;30.18;29.03;31.79;;
67304;Laerm;57660;51.436;5.978;2023-02-25T01:49:58;30.18;29.02;33.26;;
67304;Laerm;57660;51.436;5.978;2023-02-25T01:50:21;30.31;29.09;32.44;;
67304;Laerm;57660;51.436;5.978;2023-02-25T01:50:46;30.59;29.00;35.04;;
67304;Laerm;57660;51.436;5.978;2023-02-25T01:51:12;30.23;28.81;36.05;;
67304;Laerm;57660;51.436;5.978;2023-02-25T01:51:32;30.35;28.54;34.90;;
67304;Laerm;57660;51.436;5.978;2023-02-25T01:53:06;30.35;28.70;32.72;;
67304;Laerm;57660;51.436;5.978;2023-02-25T01:53:36;29.89;28.61;31.36;;
67304;Laerm;57660;51.436;5.978;2023-02-25T01:54:26;30.08;28.80;34.29;;
67304;Laerm;57660;51.436;5.978;2023-02-25T01:54:47;29.99;29.10;31.11;;
67304;Laerm;57660;51.436;5.978;2023-02-25T01:55:24;29.93;28.75;31.80;;
67304;Laerm;57660;51.436;5.978;2023-02-25T01:55:50;30.02;28.80;33.01;;
67304;Laerm;57660;51.436;5.978;2023-02-25T01:56:16;30.17;28.70;40.03;;
67304;Laerm;57660;51.436;5.978;2023-02-25T01:56:43;30.12;28.95;31.49;;
67304;Laerm;57660;51.436;5.978;2023-02-25T01:57:09;30.16;29.05;33.01;;
67304;Laerm;57660;51.436;5.978;2023-02-25T01:57:38;30.54;29.16;41.89;;
67304;Laerm;57660;51.436;5.978;2023-02-25T01:58:03;30.10;29.05;32.70;;
67304;Laerm;57660;51.436;5.978;2023-02-25T01:58:22;30.80;29.29;33.38;;
67304;Laerm;57660;51.436;5.978;2023-02-25T01:59:09;48.31;33.18;56.31;;
67304;Laerm;57660;51.436;5.978;2023-02-25T02:01:52;32.88;29.37;38.22;;
67304;Laerm;57660;51.436;5.978;2023-02-25T02:02:14;30.24;28.88;35.94;;
67304;Laerm;57660;51.436;5.978;2023-02-25T02:03:09;68.81;39.19;80.44;;
67304;Laerm;57660;51.436;5.978;2023-02-25T02:03:53;72.80;48.01;78.73;;
67304;Laerm;57660;51.436;5.978;2023-02-25T02:04:16;47.24;37.75;55.97;;
67304;Laerm;57660;51.436;5.978;2023-02-25T02:04:42;40.18;34.60;48.22;;
67304;Laerm;57660;51.436;5.978;2023-02-25T02:04:54;33.21;30.79;36.94;;
67304;Laerm;57660;51.436;5.978;2023-02-25T02:05:13;31.91;30.00;40.88;;
67304;Laerm;57660;51.436;5.978;2023-02-25T02:05:24;32.15;30.36;40.29;;
67304;Laerm;57660;51.436;5.978;2023-02-25T02:07:15;30.29;28.99;36.60;;
67304;Laerm;57660;51.436;5.978;2023-02-25T02:07:59;30.12;28.99;31.61;;
67304;Laerm;57660;51.436;5.978;2023-02-25T02:08:34;30.14;28.62;38.75;;
67304;Laerm;57660;51.436;5.978;2023-02-25T02:08:54;30.86;29.05;38.38;;
67304;Laerm;57660;51.436;5.978;2023-02-25T02:09:21;32.18;28.72;46.84;;
67304;Laerm;57660;51.436;5.978;2023-02-25T02:09:42;30.17;29.06;32.81;;
67304;Laerm;57660;51.436;5.978;2023-02-25T02:10:35;30.13;28.71;33.82;;
67304;Laerm;57660;51.436;5.978;2023-02-25T02:10:54;30.82;29.26;40.19;;
67304;Laerm;57660;51.436;5.978;2023-02-25T02:11:19;30.54;29.17;32.35;;
67304;Laerm;57660;51.436;5.978;2023-02-25T02:11:41;29.97;28.57;31.13;;
67304;Laerm;57660;51.436;5.978;2023-02-25T02:12:02;30.20;29.12;31.35;;
67304;Laerm;57660;51.436;5.978;2023-02-25T02:12:23;30.17;28.93;33.28;;
67304;Laerm;57660;51.436;5.978;2023-02-25T02:13:24;32.03;29.30;41.75;;
67304;Laerm;57660;51.436;5.978;2023-02-25T02:13:47;31.38;29.60;39.12;;
67304;Laerm;57660;51.436;5.978;2023-02-25T02:14:08;32.18;30.14;35.60;;